METAR Data
IDs: Format: Raw Decoded Include TAF

Data at: 2126 UTC 18 Apr 2021

KCPS 182053Z 29006KT 10SM CLR 18/M04 A2990 RMK AO2 SLP124 T01781039 56011